Time;durP1;ratioP1;P1;durP2;ratioP2;P2;SDS_P1;SDS_P2;PMS_P1;PMS_P2;Temp;Humidity;BMP_temperature;BMP_pressure;BME280_temperature;BME280_humidity;BME280_pressure;Samples;Min_cycle;Max_cycle;Signal;HPM_P1;HPM_P2
2022/06/09 00:01:19;;;;;;;;;;;;;;;14.29;100.00;100726.97;5011715;28;19963;-28
2022/06/09 00:03:49;;;;;;;;;;;;;;;14.30;100.00;100723.00;5012399;28;19987;-28
2022/06/09 00:06:17;;;;;;;;;;;;;;;14.32;100.00;100740.38;5012204;28;19921;-28
2022/06/09 00:08:48;;;;;;;;;;;;;;;14.31;100.00;100738.72;5011533;28;19921;-28
2022/06/09 00:11:18;;;;;;;;;;;;;;;14.30;100.00;100735.06;5012174;28;20405;-28
2022/06/09 00:13:47;;;;;;;;;;;;;;;14.31;100.00;100739.53;5011935;28;20370;-28
2022/06/09 00:16:15;;;;;;;;;;;;;;;14.32;100.00;100743.16;5011278;28;19921;-28
2022/06/09 00:18:43;;;;;;;;;;;;;;;14.33;100.00;100739.22;5001553;28;19925;-29
2022/06/09 00:21:12;;;;;;;;;;;;;;;14.32;100.00;100741.19;5011089;28;19929;-29
2022/06/09 00:23:40;;;;;;;;;;;;;;;14.33;100.00;100747.63;5011992;28;19922;-28
2022/06/09 00:26:08;;;;;;;;;;;;;;;14.33;100.00;100753.25;5011142;28;19928;-28
2022/06/09 00:28:36;;;;;;;;;;;;;;;14.32;100.00;100760.00;5011464;28;19921;-28
2022/06/09 00:31:03;;;;;;;;;;;;;;;14.32;100.00;100760.00;5012122;28;19929;-29
2022/06/09 00:33:31;;;;;;;;;;;;;;;14.30;100.00;100763.13;5011876;28;20486;-28
2022/06/09 00:35:59;;;;;;;;;;;;;;;14.28;100.00;100767.41;5011198;28;19937;-29
2022/06/09 00:38:28;;;;;;;;;;;;;;;14.27;100.00;100765.78;5011709;28;19925;-29
2022/06/09 00:40:57;;;;;;;;;;;;;;;14.25;100.00;100766.09;5011671;28;19921;-28
2022/06/09 00:43:25;;;;;;;;;;;;;;;14.24;100.00;100772.84;5011173;28;19929;-28
2022/06/09 00:45:56;;;;;;;;;;;;;;;14.24;100.00;100777.66;5011652;28;20408;-28
2022/06/09 00:48:26;;;;;;;;;;;;;;;14.21;100.00;100773.50;5011803;28;20469;-28
2022/06/09 00:50:57;;;;;;;;;;;;;;;14.19;100.00;100783.44;5011171;28;19921;-28
2022/06/09 00:53:26;;;;;;;;;;;;;;;14.19;100.00;100777.81;5011674;28;19921;-28
2022/06/09 00:55:56;;;;;;;;;;;;;;;14.18;100.00;100784.59;5011840;28;20350;-29
2022/06/09 00:58:25;;;;;;;;;;;;;;;14.16;100.00;100784.91;5011218;28;19936;-28
2022/06/09 01:00:55;;;;;;;;;;;;;;;14.15;100.00;100788.84;5011685;28;19948;-28
2022/06/09 01:03:24;;;;;;;;;;;;;;;14.12;100.00;100790.34;5010857;28;19932;-28
2022/06/09 01:05:54;;;;;;;;;;;;;;;14.10;100.00;100789.81;5011471;28;20463;-28
2022/06/09 01:08:27;;;;;;;;;;;;;;;14.09;100.00;100790.97;5011685;28;19921;-28
2022/06/09 01:10:56;;;;;;;;;;;;;;;14.08;100.00;100794.94;5010719;28;19928;-29
2022/06/09 01:13:24;;;;;;;;;;;;;;;14.07;100.00;100795.25;5011589;28;20019;-28
2022/06/09 01:15:58;;;;;;;;;;;;;;;14.06;100.00;100800.03;5011366;28;19931;-29
2022/06/09 01:18:34;;;;;;;;;;;;;;;14.04;100.00;100796.72;5010948;28;19921;-28
2022/06/09 01:21:07;;;;;;;;;;;;;;;14.02;100.00;100796.22;5011539;28;19944;-30
2022/06/09 01:23:57;;;;;;;;;;;;;;;14.00;100.00;100803.31;5011340;28;19929;-30
2022/06/09 01:26:38;;;;;;;;;;;;;;;13.98;100.00;100809.25;5010574;28;19940;-28
2022/06/09 01:29:21;;;;;;;;;;;;;;;13.95;100.00;100809.91;5011548;28;19921;-28
2022/06/09 01:31:51;;;;;;;;;;;;;;;13.95;100.00;100806.28;5010636;28;20265;-30
2022/06/09 01:34:22;;;;;;;;;;;;;;;13.93;100.00;100815.00;5011192;28;20045;-28
2022/06/09 01:36:55;;;;;;;;;;;;;;;13.92;100.00;100823.75;5011376;28;19926;-28
2022/06/09 01:39:27;;;;;;;;;;;;;;;13.89;100.00;100821.59;5014157;28;19927;-28
2022/06/09 01:41:55;;;;;;;;;;;;;;;13.88;100.00;100822.72;5015033;28;20303;-29
2022/06/09 01:44:23;;;;;;;;;;;;;;;13.85;100.00;100824.19;5014840;28;19921;-27
2022/06/09 01:46:52;;;;;;;;;;;;;;;13.84;100.00;100824.53;5013981;28;19921;-28
2022/06/09 01:49:23;;;;;;;;;;;;;;;13.80;100.00;100827.97;5014685;28;19921;-28
2022/06/09 01:51:52;;;;;;;;;;;;;;;13.79;100.00;100833.88;5004670;28;19928;-28
2022/06/09 01:54:22;;;;;;;;;;;;;;;13.75;100.00;100844.13;5003187;28;20359;-28
2022/06/09 01:56:52;;;;;;;;;;;;;;;13.74;100.00;100834.88;5014658;28;20363;-28
2022/06/09 01:59:22;;;;;;;;;;;;;;;13.72;100.00;100837.16;5014732;28;20392;-29
2022/06/09 02:01:53;;;;;;;;;;;;;;;13.71;100.00;100849.53;5014328;28;19921;-28
2022/06/09 02:04:24;;;;;;;;;;;;;;;13.69;100.00;100843.41;5014864;28;19925;-29
2022/06/09 02:06:53;;;;;;;;;;;;;;;13.67;100.00;100840.09;5013775;28;20295;-28
2022/06/09 02:09:23;;;;;;;;;;;;;;;13.65;100.00;100841.56;5014549;28;19929;-29
2022/06/09 02:11:53;;;;;;;;;;;;;;;13.63;100.00;100841.06;5014348;28;19922;-29
2022/06/09 02:14:22;;;;;;;;;;;;;;;13.61;100.00;100846.97;5013542;28;19921;-28
2022/06/09 02:16:50;;;;;;;;;;;;;;;13.60;100.00;100841.69;5013946;28;19924;-28
2022/06/09 02:19:18;;;;;;;;;;;;;;;13.58;100.00;100844.03;5014156;28;19936;-28
2022/06/09 02:21:47;;;;;;;;;;;;;;;13.57;100.00;100851.59;5013298;28;19956;-30
2022/06/09 02:24:14;;;;;;;;;;;;;;;13.56;100.00;100854.72;5014084;28;19929;-28
2022/06/09 02:26:42;;;;;;;;;;;;;;;13.55;100.00;100847.47;5013908;28;19927;-28
2022/06/09 02:29:10;;;;;;;;;;;;;;;13.54;100.00;100857.84;5013404;28;19926;-29
2022/06/09 02:31:37;;;;;;;;;;;;;;;13.55;100.00;100861.47;5014114;28;19921;-30
2022/06/09 02:34:05;;;;;;;;;;;;;;;13.53;100.00;100861.78;5013725;28;19929;-29
2022/06/09 02:36:33;;;;;;;;;;;;;;;13.53;100.00;100866.56;5012676;28;19928;-30
2022/06/09 02:39:02;;;;;;;;;;;;;;;13.54;100.00;100868.22;5012429;28;20317;-28
2022/06/09 02:41:29;;;;;;;;;;;;;;;13.53;100.00;100875.81;5011712;28;19927;-29
2022/06/09 02:43:57;;;;;;;;;;;;;;;13.53;100.00;100872.19;5011621;28;20035;-28
2022/06/09 02:46:24;;;;;;;;;;;;;;;13.53;100.00;100877.78;5011967;28;20331;-28
2022/06/09 02:48:53;;;;;;;;;;;;;;;13.51;100.00;100871.66;5010643;28;19975;-29
2022/06/09 02:51:26;;;;;;;;;;;;;;;13.49;100.00;100865.53;5012307;28;19964;-29
2022/06/09 02:53:54;;;;;;;;;;;;;;;13.47;100.00;100874.28;5002449;28;19925;-28
2022/06/09 02:56:23;;;;;;;;;;;;;;;13.46;100.00;100875.41;5002072;28;19922;-29
2022/06/09 02:58:51;;;;;;;;;;;;;;;13.45;100.00;100876.56;5013482;28;20530;-28
2022/06/09 03:01:18;;;;;;;;;;;;;;;13.44;100.00;100886.13;5012739;28;19928;-28
2022/06/09 03:03:46;;;;;;;;;;;;;;;13.44;100.00;100883.31;5009195;28;19936;-30
2022/06/09 03:06:14;;;;;;;;;;;;;;;13.43;100.00;100888.09;5013294;28;20015;-28
2022/06/09 03:08:41;;;;;;;;;;;;;;;13.43;100.00;100890.06;5012657;28;19928;-28
2022/06/09 03:11:10;;;;;;;;;;;;;;;13.42;100.00;100894.00;5011781;28;19935;-28
2022/06/09 03:13:40;;;;;;;;;;;;;;;13.42;100.00;100896.81;5012437;28;20419;-31
2022/06/09 03:16:08;;;;;;;;;;;;;;;13.40;100.00;100901.91;5012423;28;19925;-28
2022/06/09 03:18:37;;;;;;;;;;;;;;;13.40;100.00;100904.72;5011522;28;19947;-28
2022/06/09 03:21:04;;;;;;;;;;;;;;;13.39;100.00;100911.47;5008079;28;20335;-29
2022/06/09 03:23:32;;;;;;;;;;;;;;;13.38;100.00;100921.03;5012184;28;20011;-30
2022/06/09 03:26:00;;;;;;;;;;;;;;;13.36;100.00;100924.16;5011012;28;19921;-28
2022/06/09 03:28:28;;;;;;;;;;;;;;;13.36;100.00;100920.53;5011991;28;19922;-28
2022/06/09 03:30:57;;;;;;;;;;;;;;;13.35;100.00;100925.31;5010364;28;19925;-28
2022/06/09 03:33:25;;;;;;;;;;;;;;;13.36;100.00;100934.53;5012227;28;20012;-28
2022/06/09 03:35:52;;;;;;;;;;;;;;;13.34;100.00;100943.25;5012787;28;19921;-28
2022/06/09 03:38:20;;;;;;;;;;;;;;;13.34;100.00;100946.06;5011643;28;20372;-29
2022/06/09 03:40:48;;;;;;;;;;;;;;;13.33;100.00;100944.41;5012472;28;20020;-28
2022/06/09 03:43:15;;;;;;;;;;;;;;;13.34;100.00;100954.47;5012447;28;20402;-29
2022/06/09 03:45:43;;;;;;;;;;;;;;;13.35;100.00;100960.91;5011916;28;19976;-28
2022/06/09 03:48:12;;;;;;;;;;;;;;;13.36;100.00;100956.97;5012375;28;19929;-28
2022/06/09 03:50:40;;;;;;;;;;;;;;;13.35;100.00;100964.53;5012687;28;19921;-28
2022/06/09 03:53:07;;;;;;;;;;;;;;;13.34;100.00;100968.50;5011691;28;19922;-30
2022/06/09 03:55:36;;;;;;;;;;;;;;;13.35;100.00;100967.34;5012589;28;19926;-28
2022/06/09 03:58:04;;;;;;;;;;;;;;;13.35;100.00;100972.94;5012421;28;19921;-28
2022/06/09 04:00:32;;;;;;;;;;;;;;;13.34;100.00;100968.50;5010875;28;19921;-28
2022/06/09 04:03:00;;;;;;;;;;;;;;;13.35;100.00;100980.53;5011182;28;19927;-29
2022/06/09 04:05:29;;;;;;;;;;;;;;;13.36;100.00;100983.03;5012350;28;19928;-28
2022/06/09 04:07:58;;;;;;;;;;;;;;;13.36;100.00;100979.38;5011575;28;20306;-29
2022/06/09 04:10:27;;;;;;;;;;;;;;;13.36;100.00;100991.44;5012083;28;19925;-28
2022/06/09 04:12:55;;;;;;;;;;;;;;;13.39;100.00;100995.53;5011956;28;19928;-28
2022/06/09 04:15:22;;;;;;;;;;;;;;;13.38;100.00;100997.56;5011339;28;20402;-28
2022/06/09 04:17:51;;;;;;;;;;;;;;;13.41;100.00;101002.50;5011966;28;19925;-28
2022/06/09 04:20:20;;;;;;;;;;;;;;;13.40;100.00;101006.44;5010601;28;19922;-28
2022/06/09 04:22:49;;;;;;;;;;;;;;;13.42;100.00;101004.16;5011725;28;19921;-28
2022/06/09 04:25:17;;;;;;;;;;;;;;;13.43;100.00;101003.03;5011689;28;19944;-28
2022/06/09 04:27:45;;;;;;;;;;;;;;;13.44;100.00;101006.66;5011014;28;19925;-28
2022/06/09 04:30:14;;;;;;;;;;;;;;;13.45;100.00;101008.31;5011561;28;19925;-28
2022/06/09 04:32:48;;;;;;;;;;;;;;;13.45;100.00;101011.94;5011879;28;19929;-29
2022/06/09 04:35:16;;;;;;;;;;;;;;;13.47;100.00;101013.59;5011134;28;19933;-29
2022/06/09 04:38:02;;;;;;;;;;;;;;;13.49;100.00;101014.13;5011685;28;19929;-28
2022/06/09 04:40:33;;;;;;;;;;;;;;;13.49;100.00;101011.31;5009307;28;19932;-28
2022/06/09 04:43:01;;;;;;;;;;;;;;;13.51;100.00;101014.66;5009800;28;19931;-29
2022/06/09 04:45:30;;;;;;;;;;;;;;;13.52;100.00;101019.09;5010089;28;19922;-28
2022/06/09 04:47:57;;;;;;;;;;;;;;;13.53;100.00;101017.97;5010253;28;19971;-30
2022/06/09 04:50:26;;;;;;;;;;;;;;;13.54;100.00;101019.63;5009845;28;19968;-28
2022/06/09 04:52:53;;;;;;;;;;;;;;;13.55;100.00;101022.13;5010420;28;19928;-28
2022/06/09 04:55:21;;;;;;;;;;;;;;;13.55;100.00;101033.34;4999098;28;20299;-28
2022/06/09 04:57:50;;;;;;;;;;;;;;;13.57;100.00;101042.25;5010625;28;19930;-29
2022/06/09 05:00:18;;;;;;;;;;;;;;;13.59;100.00;101036.34;5010711;28;20403;-29
2022/06/09 05:02:45;;;;;;;;;;;;;;;13.61;100.00;101050.84;5009823;28;20089;-28
2022/06/09 05:05:18;;;;;;;;;;;;;;;13.63;100.00;101048.56;5006876;28;19937;-28
2022/06/09 05:07:45;;;;;;;;;;;;;;;13.63;100.00;101054.16;5009967;28;19933;-28
2022/06/09 05:10:13;;;;;;;;;;;;;;;13.65;100.00;101060.28;5009900;28;20298;-28
2022/06/09 05:12:41;;;;;;;;;;;;;;;13.68;100.00;101068.09;5012106;28;19925;-28
2022/06/09 05:15:12;;;;;;;;;;;;;;;13.70;100.00;101071.41;5014143;28;19925;-28
2022/06/09 05:17:39;;;;;;;;;;;;;;;13.72;100.00;101072.75;5006359;28;19928;-28
2022/06/09 05:20:08;;;;;;;;;;;;;;;13.75;100.00;101082.50;5014177;28;19929;-30
2022/06/09 05:22:35;;;;;;;;;;;;;;;13.78;100.00;101081.88;5014216;28;19928;-28
2022/06/09 05:25:03;;;;;;;;;;;;;;;13.80;100.00;101091.63;5011963;28;19930;-30
2022/06/09 05:27:31;;;;;;;;;;;;;;;13.84;100.00;101091.00;5014724;28;19925;-28
2022/06/09 05:30:00;;;;;;;;;;;;;;;13.86;100.00;101111.97;5014437;28;19987;-30
2022/06/09 05:32:29;;;;;;;;;;;;;;;13.88;100.00;101109.69;5014231;28;19921;-28
2022/06/09 05:34:56;;;;;;;;;;;;;;;13.91;100.00;101117.47;5015120;28;20015;-28
2022/06/09 05:37:24;;;;;;;;;;;;;;;13.94;100.00;101116.84;5014475;28;19953;-29
2022/06/09 05:45:22;;;;;;;;;;;;;;;14.00;100.00;101125.97;5014294;28;19921;-28
2022/06/09 05:47:51;;;;;;;;;;;;;;;14.03;100.00;101134.59;5014579;28;19925;-29
2022/06/09 05:50:19;;;;;;;;;;;;;;;14.05;100.00;101137.09;5014164;28;19921;-29
2022/06/09 05:52:47;;;;;;;;;;;;;;;14.09;100.00;101144.56;5013839;28;20371;-31
2022/06/09 05:55:14;;;;;;;;;;;;;;;14.11;100.00;101147.06;5013319;28;19944;-28
2022/06/09 05:57:42;;;;;;;;;;;;;;;14.14;100.00;101141.63;5014745;28;20375;-31
2022/06/09 06:00:11;;;;;;;;;;;;;;;14.18;100.00;101132.59;5013621;28;19921;-28
2022/06/09 06:02:43;;;;;;;;;;;;;;;14.20;100.00;101149.91;5014319;28;20303;-29
2022/06/09 06:06:33;;;;;;;;;;;;;;;14.23;100.00;101141.69;5014108;28;19927;-29
2022/06/09 06:08:00;;;;;;;;;;;;;;;14.29;100.00;101148.03;5005662;28;20398;-29
2022/06/09 06:10:28;;;;;;;;;;;;;;;14.35;100.00;101155.19;5014481;28;19925;-28
2022/06/09 06:12:55;;;;;;;;;;;;;;;14.39;100.00;101170.22;5002998;28;19925;-28
2022/06/09 06:15:23;;;;;;;;;;;;;;;14.45;100.00;101172.66;5014289;28;19936;-28
2022/06/09 06:17:53;;;;;;;;;;;;;;;14.54;100.00;101175.53;5014351;28;19921;-31
2022/06/09 06:20:22;;;;;;;;;;;;;;;14.64;100.00;101182.88;5010751;28;19932;-29
2022/06/09 06:22:50;;;;;;;;;;;;;;;14.76;100.00;101183.97;5010987;28;19921;-28
2022/06/09 06:25:18;;;;;;;;;;;;;;;14.92;100.00;101184.41;5012191;28;20309;-30
2022/06/09 06:27:45;;;;;;;;;;;;;;;15.11;100.00;101187.00;5013395;28;19926;-29
2022/06/09 06:30:13;;;;;;;;;;;;;;;15.31;100.00;101186.44;5013945;28;19921;-28
2022/06/09 06:32:41;;;;;;;;;;;;;;;15.57;100.00;101194.22;5013879;28;19926;-28
2022/06/09 06:35:09;;;;;;;;;;;;;;;15.88;100.00;101200.59;5013086;28;19929;-29
2022/06/09 06:37:43;;;;;;;;;;;;;;;16.33;100.00;101203.19;5014016;28;19921;-29
2022/06/09 06:40:12;;;;;;;;;;;;;;;16.77;100.00;101202.91;5013932;28;19925;-28
2022/06/09 06:42:40;;;;;;;;;;;;;;;17.27;100.00;101210.75;5012951;28;20405;-28
2022/06/09 06:45:08;;;;;;;;;;;;;;;17.90;100.00;101212.69;5012233;28;20138;-28
2022/06/09 06:47:38;;;;;;;;;;;;;;;18.42;100.00;101220.00;5014145;28;19932;-28
2022/06/09 06:50:09;;;;;;;;;;;;;;;18.94;100.00;101228.94;5013164;28;19971;-28
2022/06/09 06:52:37;;;;;;;;;;;;;;;19.50;100.00;101232.22;5013606;28;19921;-28
2022/06/09 06:55:07;;;;;;;;;;;;;;;20.09;100.00;101243.13;5012758;28;19921;-28
2022/06/09 06:57:35;;;;;;;;;;;;;;;20.70;100.00;101240.25;5013493;28;20346;-28
2022/06/09 07:00:03;;;;;;;;;;;;;;;21.18;100.00;101239.25;5013656;28;19925;-29
2022/06/09 07:02:31;;;;;;;;;;;;;;;21.56;100.00;101239.53;5012888;28;19921;-30
2022/06/09 07:05:20;;;;;;;;;;;;;;;21.91;100.00;101236.81;5013323;28;19948;-28
2022/06/09 07:07:47;;;;;;;;;;;;;;;22.22;100.00;101241.66;5013149;28;19921;-28
2022/06/09 07:10:18;;;;;;;;;;;;;;;22.52;96.33;101241.97;5012257;28;19928;-29
2022/06/09 07:12:52;;;;;;;;;;;;;;;22.93;95.36;101251.03;5011971;28;20012;-29
2022/06/09 07:15:19;;;;;;;;;;;;;;;23.29;92.43;101258.28;5013302;28;19927;-32
2022/06/09 07:17:47;;;;;;;;;;;;;;;23.65;88.01;101257.81;5012451;28;19921;-30
2022/06/09 07:20:15;;;;;;;;;;;;;;;24.16;88.44;101259.53;5013257;28;19940;-33
2022/06/09 07:22:43;;;;;;;;;;;;;;;24.53;81.28;101260.56;5013189;28;20301;-38
2022/06/09 07:25:14;;;;;;;;;;;;;;;24.79;77.64;101262.53;5012182;28;19921;-28
2022/06/09 07:27:43;;;;;;;;;;;;;;;25.04;75.92;101268.63;5013057;28;19921;-30
2022/06/09 07:30:11;;;;;;;;;;;;;;;25.23;74.09;101270.50;5011951;28;19933;-29
2022/06/09 07:32:39;;;;;;;;;;;;;;;25.49;70.72;101272.44;5013249;28;20390;-35
2022/06/09 07:35:07;;;;;;;;;;;;;;;25.65;70.40;101271.00;5012574;28;19921;-33
2022/06/09 07:37:35;;;;;;;;;;;;;;;25.85;66.30;101271.63;5012159;28;20267;-30
2022/06/09 07:40:04;;;;;;;;;;;;;;;25.95;65.63;101270.09;5012928;28;19921;-31
2022/06/09 07:42:32;;;;;;;;;;;;;;;26.07;64.92;101269.78;5012535;28;19960;-32
2022/06/09 07:45:01;;;;;;;;;;;;;;;26.09;65.40;101282.47;5011779;28;20371;-29
2022/06/09 07:47:29;;;;;;;;;;;;;;;26.20;65.38;101270.28;5012413;28;19925;-34
2022/06/09 07:49:57;;;;;;;;;;;;;;;26.45;66.08;101284.84;5012328;28;19925;-29
2022/06/09 07:52:25;;;;;;;;;;;;;;;26.69;64.52;101290.75;5011639;28;20028;-31
2022/06/09 07:54:52;;;;;;;;;;;;;;;26.95;63.13;101294.63;5012314;28;19921;-29
2022/06/09 07:57:25;;;;;;;;;;;;;;;27.06;60.29;101302.03;5012613;28;19929;-29
2022/06/09 07:59:53;;;;;;;;;;;;;;;27.05;58.78;101299.56;5011405;28;20279;-36
2022/06/09 08:02:22;;;;;;;;;;;;;;;27.14;60.82;101304.94;5012160;28;20386;-38
2022/06/09 08:04:50;;;;;;;;;;;;;;;27.26;60.31;101316.03;5012152;28;20391;-27
2022/06/09 08:07:18;;;;;;;;;;;;;;;27.35;56.64;101310.78;5011628;28;19922;-28
2022/06/09 08:09:45;;;;;;;;;;;;;;;27.41;56.79;101309.97;5012115;28;19932;-30
2022/06/09 08:12:13;;;;;;;;;;;;;;;27.51;60.17;101325.56;5011475;28;19921;-29
2022/06/09 08:14:41;;;;;;;;;;;;;;;27.59;57.77;101315.78;5011809;28;19925;-29
2022/06/09 08:17:09;;;;;;;;;;;;;;;27.77;57.54;101325.28;5012062;28;19921;-28
2022/06/09 08:19:38;;;;;;;;;;;;;;;27.87;57.20;101340.03;5011579;28;20338;-29
2022/06/09 08:22:06;;;;;;;;;;;;;;;27.99;56.45;101342.53;5012053;28;19925;-33
2022/06/09 08:24:34;;;;;;;;;;;;;;;27.95;52.39;101344.59;5011755;28;19928;-32
2022/06/09 08:27:02;;;;;;;;;;;;;;;27.87;50.65;101352.34;5011196;28;20009;-29
2022/06/09 08:29:30;;;;;;;;;;;;;;;27.90;55.99;101347.84;5011701;28;19925;-33
2022/06/09 08:31:58;;;;;;;;;;;;;;;27.98;55.11;101356.03;5010931;28;19928;-30
2022/06/09 08:34:25;;;;;;;;;;;;;;;28.06;53.87;101357.72;5011146;28;20047;-30
2022/06/09 08:36:55;;;;;;;;;;;;;;;27.97;53.72;101368.78;5012097;28;20275;-35
2022/06/09 08:39:22;;;;;;;;;;;;;;;28.02;50.82;101367.53;5011934;28;19935;-33
2022/06/09 08:41:58;;;;;;;;;;;;;;;28.15;54.19;101368.00;5010708;28;19925;-37
2022/06/09 08:44:29;;;;;;;;;;;;;;;28.32;52.81;101368.03;5011866;28;20637;-38
2022/06/09 08:47:02;;;;;;;;;;;;;;;28.40;52.43;101372.53;5009920;28;19925;-31
2022/06/09 08:49:41;;;;;;;;;;;;;;;28.50;52.01;101376.66;5012996;28;20386;-36
2022/06/09 08:52:17;;;;;;;;;;;;;;;28.66;50.21;101384.84;5014796;28;19946;-31
2022/06/09 08:54:45;;;;;;;;;;;;;;;28.70;47.94;101374.19;5013640;28;20454;-31
2022/06/09 08:57:15;;;;;;;;;;;;;;;28.76;51.04;101386.91;5018321;28;19976;-30
2022/06/09 08:59:43;;;;;;;;;;;;;;;28.81;49.72;101386.50;5018165;28;19921;-30
2022/06/09 09:02:26;;;;;;;;;;;;;;;28.87;50.20;101387.75;5017325;28;19921;-39
2022/06/09 09:04:59;;;;;;;;;;;;;;;28.97;50.11;101391.84;5016786;28;19928;-41
2022/06/09 09:07:30;;;;;;;;;;;;;;;29.01;48.21;101395.53;5016961;28;20016;-34
2022/06/09 09:09:59;;;;;;;;;;;;;;;29.10;48.50;101401.69;5017354;28;20301;-30
2022/06/09 09:12:32;;;;;;;;;;;;;;;29.19;49.84;101402.06;5016726;28;20272;-30
2022/06/09 09:15:04;;;;;;;;;;;;;;;29.03;45.03;101399.63;5017971;28;19921;-29
2022/06/09 09:17:37;;;;;;;;;;;;;;;28.63;47.74;101403.72;5017447;28;19921;-29
2022/06/09 09:20:07;;;;;;;;;;;;;;;28.35;48.83;101404.53;5017864;28;19929;-30
2022/06/09 09:22:38;;;;;;;;;;;;;;;28.41;51.63;101402.06;5009063;28;20020;-33
2022/06/09 09:25:18;;;;;;;;;;;;;;;28.39;51.49;101413.97;5017821;28;19925;-29
2022/06/09 09:27:49;;;;;;;;;;;;;;;28.40;48.29;101409.03;5017723;28;19925;-32
2022/06/09 09:30:19;;;;;;;;;;;;;;;28.37;50.55;101425.06;5017362;28;20343;-33
2022/06/09 09:32:49;;;;;;;;;;;;;;;28.32;49.58;101428.31;5017820;28;19929;-34
2022/06/09 09:35:19;;;;;;;;;;;;;;;28.11;46.76;101429.06;5017814;28;19921;-36
2022/06/09 09:37:49;;;;;;;;;;;;;;;27.87;51.70;101428.97;5017073;28;20047;-33
2022/06/09 09:40:19;;;;;;;;;;;;;;;27.74;49.19;101431.38;5017666;28;19948;-38
2022/06/09 09:42:47;;;;;;;;;;;;;;;27.57;52.53;101435.81;5017785;28;20299;-35
2022/06/09 09:45:17;;;;;;;;;;;;;;;27.64;54.04;101443.63;5017194;28;20390;-38
2022/06/09 09:47:47;;;;;;;;;;;;;;;27.63;52.68;101448.53;5017631;28;19922;-29
2022/06/09 09:50:33;;;;;;;;;;;;;;;27.42;52.46;101459.84;5017838;28;19935;-39
2022/06/09 09:53:04;;;;;;;;;;;;;;;27.35;55.41;101469.25;5008388;28;19925;-32
2022/06/09 09:55:33;;;;;;;;;;;;;;;27.45;52.54;101467.66;5017825;28;19922;-31
2022/06/09 09:58:22;;;;;;;;;;;;;;;27.26;51.58;101476.53;5006101;28;19921;-29
2022/06/09 10:00:52;;;;;;;;;;;;;;;26.92;52.17;101479.53;5003148;28;19922;-30
2022/06/09 10:09:02;;;;;;;;;;;;;;;27.05;54.75;101480.88;5014378;28;19935;-31
2022/06/09 10:11:54;;;;;;;;;;;;;;;27.17;51.43;101488.34;5013581;28;19943;-30
2022/06/09 10:14:46;;;;;;;;;;;;;;;26.95;52.50;101500.84;5014292;28;19921;-34
2022/06/09 10:17:36;;;;;;;;;;;;;;;26.76;52.65;101499.84;5014231;28;19936;-29
2022/06/09 10:20:27;;;;;;;;;;;;;;;26.46;52.62;101510.56;5012288;28;19965;-32
2022/06/09 10:22:57;;;;;;;;;;;;;;;26.29;56.66;101516.88;5014267;28;19922;-30
2022/06/09 10:25:30;;;;;;;;;;;;;;;26.51;58.06;101518.81;5013897;28;19921;-30
2022/06/09 10:28:01;;;;;;;;;;;;;;;26.76;54.47;101525.63;5013302;28;19947;-38
2022/06/09 10:30:35;;;;;;;;;;;;;;;26.89;55.98;101519.59;5013895;28;19922;-30
2022/06/09 10:33:08;;;;;;;;;;;;;;;27.01;55.42;101519.31;5013195;28;19936;-30
2022/06/09 10:35:40;;;;;;;;;;;;;;;26.98;53.18;101522.97;5010911;28;20023;-30
2022/06/09 10:38:16;;;;;;;;;;;;;;;26.96;54.79;101511.94;5013784;28;19943;-32
2022/06/09 10:40:48;;;;;;;;;;;;;;;27.05;54.60;101515.25;5009941;28;19922;-30
2022/06/09 10:43:20;;;;;;;;;;;;;;;27.15;54.78;101522.31;5009324;28;19921;-34
2022/06/09 10:45:50;;;;;;;;;;;;;;;27.26;53.58;101528.94;5013823;28;19943;-37
2022/06/09 10:56:54;;;;;;;;;;;;;;;27.36;50.65;101541.72;5012880;28;20299;-39
2022/06/09 10:59:25;;;;;;;;;;;;;;;27.44;53.87;101529.91;5013479;28;19921;-34
2022/06/09 11:01:53;;;;;;;;;;;;;;;27.70;52.50;101543.22;5012932;28;19940;-34
2022/06/09 11:04:20;;;;;;;;;;;;;;;27.84;47.63;101550.25;5013421;28;20008;-35
2022/06/09 11:06:57;;;;;;;;;;;;;;;27.85;50.99;101551.91;5013314;28;20021;-38
2022/06/09 11:09:28;;;;;;;;;;;;;;;27.77;49.95;101556.78;5012351;28;20327;-40
2022/06/09 11:12:02;;;;;;;;;;;;;;;27.70;51.75;101554.69;5012686;28;19925;-33
2022/06/09 11:14:36;;;;;;;;;;;;;;;27.78;52.44;101559.22;5013195;28;19922;-30
2022/06/09 11:17:10;;;;;;;;;;;;;;;27.67;48.22;101569.81;5012206;28;19921;-30
2022/06/09 11:19:49;;;;;;;;;;;;;;;27.48;52.48;101566.38;5013203;28;19921;-31
2022/06/09 11:22:25;;;;;;;;;;;;;;;27.53;49.54;101563.97;5010119;28;20019;-30
2022/06/09 11:24:56;;;;;;;;;;;;;;;27.49;51.32;101582.34;5012882;28;19929;-33
2022/06/09 11:27:33;;;;;;;;;;;;;;;27.53;50.84;101572.56;5013024;28;19925;-30
2022/06/09 11:30:06;;;;;;;;;;;;;;;27.48;49.88;101581.53;5012326;28;20401;-32
2022/06/09 11:32:38;;;;;;;;;;;;;;;27.27;50.81;101578.50;5012843;28;19944;-32
2022/06/09 11:35:13;;;;;;;;;;;;;;;27.16;49.17;101583.31;5012916;28;19925;-30
2022/06/09 11:37:55;;;;;;;;;;;;;;;27.12;53.53;101577.53;5009101;28;19921;-36
2022/06/09 11:40:30;;;;;;;;;;;;;;;27.29;53.60;101574.00;5013004;28;19928;-30
2022/06/09 11:43:04;;;;;;;;;;;;;;;27.17;49.13;101576.38;5012723;28;20333;-30
2022/06/09 11:45:34;;;;;;;;;;;;;;;27.09;51.91;101584.06;5012374;28;19925;-33
2022/06/09 11:48:03;;;;;;;;;;;;;;;26.97;49.56;101584.38;5012788;28;19929;-32
2022/06/09 11:50:34;;;;;;;;;;;;;;;26.76;52.37;101585.75;5011939;28;20453;-38
2022/06/09 11:53:02;;;;;;;;;;;;;;;26.86;55.77;101587.06;5012570;28;20008;-30
2022/06/09 11:58:29;;;;;;;;;;;;;;;27.16;52.66;101589.06;5011347;28;19928;-30
2022/06/09 12:01:09;;;;;;;;;;;;;;;27.20;51.97;101596.44;5008825;28;20291;-31
2022/06/09 12:03:48;;;;;;;;;;;;;;;27.31;51.25;101603.09;5009881;28;19922;-36
2022/06/09 12:06:18;;;;;;;;;;;;;;;27.36;51.32;101596.19;5011864;28;19922;-34
2022/06/09 12:08:53;;;;;;;;;;;;;;;27.47;50.32;101593.41;5012424;28;19932;-41
2022/06/09 12:11:22;;;;;;;;;;;;;;;27.28;50.14;101601.03;5011963;28;19922;-30
2022/06/09 12:13:59;;;;;;;;;;;;;;;27.21;50.69;101598.09;5008638;28;20391;-33
2022/06/09 12:16:33;;;;;;;;;;;;;;;27.28;49.84;101597.34;5008251;28;19921;-32
2022/06/09 12:19:15;;;;;;;;;;;;;;;27.23;51.53;101609.16;5008324;28;19922;-29
2022/06/09 12:21:44;;;;;;;;;;;;;;;27.17;48.47;101614.44;5008351;28;20272;-35
2022/06/09 12:24:31;;;;;;;;;;;;;;;26.92;49.10;101604.75;5012138;28;20028;-38
2022/06/09 12:27:05;;;;;;;;;;;;;;;26.89;50.28;101609.22;5008715;28;19921;-30
2022/06/09 12:29:38;;;;;;;;;;;;;;;26.96;51.08;101617.91;5012311;28;19925;-30
2022/06/09 12:32:35;;;;;;;;;;;;;;;26.82;49.99;101614.03;5011886;28;19922;-34
2022/06/09 12:35:05;;;;;;;;;;;;;;;26.76;51.86;101623.00;5010970;28;19922;-31
2022/06/09 12:37:34;;;;;;;;;;;;;;;26.92;54.03;101621.91;5012039;28;19926;-30
2022/06/09 12:40:03;;;;;;;;;;;;;;;27.15;52.19;101622.63;5011368;28;19921;-29
2022/06/09 12:42:42;;;;;;;;;;;;;;;27.07;48.51;101624.56;5011907;28;20299;-31
2022/06/09 12:45:15;;;;;;;;;;;;;;;26.94;47.90;101634.66;5011732;28;20413;-39
2022/06/09 12:47:52;;;;;;;;;;;;;;;26.91;52.09;101628.88;5011055;28;20294;-30
2022/06/09 12:50:32;;;;;;;;;;;;;;;26.95;51.75;101630.59;5012024;28;19922;-30
2022/06/09 12:53:04;;;;;;;;;;;;;;;26.98;52.91;101643.28;5011651;28;20402;-31
2022/06/09 12:55:34;;;;;;;;;;;;;;;26.75;49.43;101640.56;5011115;28;19968;-34
2022/06/09 12:58:05;;;;;;;;;;;;;;;26.08;46.63;101637.59;5011638;28;19921;-29
2022/06/09 13:00:36;;;;;;;;;;;;;;;25.71;53.38;101637.44;5011089;28;19922;-31
2022/06/09 13:03:14;;;;;;;;;;;;;;;25.69;56.54;101648.44;5011904;28;19925;-30
2022/06/09 13:05:42;;;;;;;;;;;;;;;25.80;58.08;101640.00;5009156;28;19932;-30
2022/06/09 13:08:16;;;;;;;;;;;;;;;26.00;56.08;101642.38;5010717;28;19928;-30
2022/06/09 13:10:46;;;;;;;;;;;;;;;25.86;53.52;101642.16;5011553;28;19928;-30